sensor_id;sensor_type;location;lat;lon;timestamp;P1;durP1;ratioP1;P2;durP2;ratioP2
52072;SDS011;38074;51.232;6.826;2022-09-03T00:04:11;0.80;;;0.20;;
52072;SDS011;38074;51.232;6.826;2022-09-03T00:11:48;0.50;;;0.30;;
52072;SDS011;38074;51.232;6.826;2022-09-03T00:19:09;0.50;;;0.20;;
52072;SDS011;38074;51.232;6.826;2022-09-03T00:26:32;0.50;;;0.20;;
52072;SDS011;38074;51.232;6.826;2022-09-03T00:33:49;0.40;;;0.30;;
52072;SDS011;38074;51.232;6.826;2022-09-03T00:41:23;0.30;;;0.20;;
52072;SDS011;38074;51.232;6.826;2022-09-03T00:56:34;0.70;;;0.20;;
52072;SDS011;38074;51.232;6.826;2022-09-03T01:11:30;0.68;;;0.30;;
52072;SDS011;38074;51.232;6.826;2022-09-03T01:19:18;0.40;;;0.20;;
52072;SDS011;38074;51.232;6.826;2022-09-03T01:42:32;0.50;;;0.28;;
52072;SDS011;38074;51.232;6.826;2022-09-03T01:57:55;0.23;;;0.20;;
52072;SDS011;38074;51.232;6.826;2022-09-03T02:05:24;0.40;;;0.20;;
52072;SDS011;38074;51.232;6.826;2022-09-03T02:12:43;1.13;;;0.20;;
52072;SDS011;38074;51.232;6.826;2022-09-03T02:20:04;0.40;;;0.22;;
52072;SDS011;38074;51.232;6.826;2022-09-03T02:27:25;0.38;;;0.28;;
52072;SDS011;38074;51.232;6.826;2022-09-03T02:34:41;0.47;;;0.20;;
52072;SDS011;38074;51.232;6.826;2022-09-03T02:41:58;0.35;;;0.20;;
52072;SDS011;38074;51.232;6.826;2022-09-03T02:49:13;0.60;;;0.20;;
52072;SDS011;38074;51.232;6.826;2022-09-03T02:56:29;0.40;;;0.20;;
52072;SDS011;38074;51.232;6.826;2022-09-03T03:03:45;0.50;;;0.23;;
52072;SDS011;38074;51.232;6.826;2022-09-03T03:11:00;0.40;;;0.20;;
52072;SDS011;38074;51.232;6.826;2022-09-03T03:18:16;0.50;;;0.20;;
52072;SDS011;38074;51.232;6.826;2022-09-03T03:25:32;0.40;;;0.20;;
52072;SDS011;38074;51.232;6.826;2022-09-03T03:32:51;0.25;;;0.20;;
52072;SDS011;38074;51.232;6.826;2022-09-03T03:40:07;0.90;;;0.20;;
52072;SDS011;38074;51.232;6.826;2022-09-03T03:47:23;0.30;;;0.20;;
52072;SDS011;38074;51.232;6.826;2022-09-03T03:54:39;0.40;;;0.20;;
52072;SDS011;38074;51.232;6.826;2022-09-03T04:01:54;0.20;;;0.10;;
52072;SDS011;38074;51.232;6.826;2022-09-03T04:09:10;0.20;;;0.20;;
52072;SDS011;38074;51.232;6.826;2022-09-03T04:16:26;0.50;;;0.23;;
52072;SDS011;38074;51.232;6.826;2022-09-03T04:23:43;0.55;;;0.20;;
52072;SDS011;38074;51.232;6.826;2022-09-03T04:31:06;0.45;;;0.20;;
52072;SDS011;38074;51.232;6.826;2022-09-03T04:38:23;0.40;;;0.20;;
52072;SDS011;38074;51.232;6.826;2022-09-03T04:45:38;1.33;;;0.20;;
52072;SDS011;38074;51.232;6.826;2022-09-03T04:52:54;0.33;;;0.10;;
52072;SDS011;38074;51.232;6.826;2022-09-03T05:00:14;0.30;;;0.10;;
52072;SDS011;38074;51.232;6.826;2022-09-03T05:07:32;0.40;;;0.20;;
52072;SDS011;38074;51.232;6.826;2022-09-03T05:14:52;0.50;;;0.13;;
52072;SDS011;38074;51.232;6.826;2022-09-03T05:22:07;0.43;;;0.17;;
52072;SDS011;38074;51.232;6.826;2022-09-03T05:29:23;0.10;;;0.10;;
52072;SDS011;38074;51.232;6.826;2022-09-03T05:36:39;0.50;;;0.20;;
52072;SDS011;38074;51.232;6.826;2022-09-03T05:43:55;0.13;;;0.13;;
52072;SDS011;38074;51.232;6.826;2022-09-03T05:51:16;0.30;;;0.20;;
52072;SDS011;38074;51.232;6.826;2022-09-03T05:58:33;0.43;;;0.20;;
52072;SDS011;38074;51.232;6.826;2022-09-03T06:05:50;0.30;;;0.20;;
52072;SDS011;38074;51.232;6.826;2022-09-03T06:20:22;0.85;;;0.28;;
52072;SDS011;38074;51.232;6.826;2022-09-03T06:27:41;0.57;;;0.10;;
52072;SDS011;38074;51.232;6.826;2022-09-03T06:34:57;0.37;;;0.20;;
52072;SDS011;38074;51.232;6.826;2022-09-03T06:42:12;0.30;;;0.20;;
52072;SDS011;38074;51.232;6.826;2022-09-03T06:49:28;0.40;;;0.30;;
52072;SDS011;38074;51.232;6.826;2022-09-03T06:56:45;0.93;;;0.40;;
52072;SDS011;38074;51.232;6.826;2022-09-03T07:04:02;0.40;;;0.20;;
52072;SDS011;38074;51.232;6.826;2022-09-03T07:11:20;1.15;;;0.28;;
52072;SDS011;38074;51.232;6.826;2022-09-03T07:18:37;0.40;;;0.20;;
52072;SDS011;38074;51.232;6.826;2022-09-03T07:25:57;0.20;;;0.10;;
52072;SDS011;38074;51.232;6.826;2022-09-03T07:33:14;0.35;;;0.15;;
52072;SDS011;38074;51.232;6.826;2022-09-03T07:40:29;0.40;;;0.23;;
52072;SDS011;38074;51.232;6.826;2022-09-03T07:47:46;0.80;;;0.30;;
52072;SDS011;38074;51.232;6.826;2022-09-03T07:55:04;0.30;;;0.10;;
52072;SDS011;38074;51.232;6.826;2022-09-03T08:02:20;0.30;;;0.20;;
52072;SDS011;38074;51.232;6.826;2022-09-03T08:09:36;0.30;;;0.20;;
52072;SDS011;38074;51.232;6.826;2022-09-03T08:16:51;0.30;;;0.20;;
52072;SDS011;38074;51.232;6.826;2022-09-03T08:24:07;0.77;;;0.20;;
52072;SDS011;38074;51.232;6.826;2022-09-03T08:31:23;0.40;;;0.20;;
52072;SDS011;38074;51.232;6.826;2022-09-03T08:45:57;0.10;;;0.10;;
52072;SDS011;38074;51.232;6.826;2022-09-03T08:53:21;1.00;;;0.38;;
52072;SDS011;38074;51.232;6.826;2022-09-03T09:08:19;0.47;;;0.20;;
52072;SDS011;38074;51.232;6.826;2022-09-03T09:23:05;0.60;;;0.30;;
52072;SDS011;38074;51.232;6.826;2022-09-03T09:30:22;0.20;;;0.10;;
52072;SDS011;38074;51.232;6.826;2022-09-03T09:37:48;0.20;;;0.20;;
52072;SDS011;38074;51.232;6.826;2022-09-03T09:45:08;0.30;;;0.20;;
52072;SDS011;38074;51.232;6.826;2022-09-03T09:52:26;0.73;;;0.20;;
52072;SDS011;38074;51.232;6.826;2022-09-03T09:59:44;0.70;;;0.20;;
52072;SDS011;38074;51.232;6.826;2022-09-03T10:07:52;0.63;;;0.30;;
52072;SDS011;38074;51.232;6.826;2022-09-03T10:22:42;0.30;;;0.20;;
52072;SDS011;38074;51.232;6.826;2022-09-03T10:30:04;0.30;;;0.20;;
52072;SDS011;38074;51.232;6.826;2022-09-03T10:37:36;0.50;;;0.20;;
52072;SDS011;38074;51.232;6.826;2022-09-03T10:45:01;0.40;;;0.20;;
52072;SDS011;38074;51.232;6.826;2022-09-03T10:52:54;0.90;;;0.30;;
52072;SDS011;38074;51.232;6.826;2022-09-03T11:00:32;0.60;;;0.30;;
52072;SDS011;38074;51.232;6.826;2022-09-03T11:08:15;0.20;;;0.10;;
52072;SDS011;38074;51.232;6.826;2022-09-03T11:15:41;0.47;;;0.22;;
52072;SDS011;38074;51.232;6.826;2022-09-03T11:23:11;0.43;;;0.20;;
52072;SDS011;38074;51.232;6.826;2022-09-03T11:30:45;0.73;;;0.30;;
52072;SDS011;38074;51.232;6.826;2022-09-03T11:52:47;0.63;;;0.30;;
52072;SDS011;38074;51.232;6.826;2022-09-03T12:00:11;0.68;;;0.30;;
52072;SDS011;38074;51.232;6.826;2022-09-03T12:23:00;0.57;;;0.30;;
52072;SDS011;38074;51.232;6.826;2022-09-03T12:30:17;0.57;;;0.40;;
52072;SDS011;38074;51.232;6.826;2022-09-03T12:37:36;0.85;;;0.40;;
52072;SDS011;38074;51.232;6.826;2022-09-03T12:44:52;0.60;;;0.30;;
52072;SDS011;38074;51.232;6.826;2022-09-03T12:52:22;0.80;;;0.20;;
52072;SDS011;38074;51.232;6.826;2022-09-03T12:59:44;0.25;;;0.20;;
52072;SDS011;38074;51.232;6.826;2022-09-03T13:07:03;0.30;;;0.30;;
52072;SDS011;38074;51.232;6.826;2022-09-03T13:14:25;0.50;;;0.30;;
52072;SDS011;38074;51.232;6.826;2022-09-03T13:29:46;0.40;;;0.30;;
52072;SDS011;38074;51.232;6.826;2022-09-03T13:44:43;0.90;;;0.50;;
52072;SDS011;38074;51.232;6.826;2022-09-03T13:52:04;0.60;;;0.30;;
52072;SDS011;38074;51.232;6.826;2022-09-03T14:07:10;0.55;;;0.28;;
52072;SDS011;38074;51.232;6.826;2022-09-03T14:22:25;0.45;;;0.30;;
52072;SDS011;38074;51.232;6.826;2022-09-03T14:30:03;0.40;;;0.30;;
52072;SDS011;38074;51.232;6.826;2022-09-03T15:00:16;0.32;;;0.30;;
52072;SDS011;38074;51.232;6.826;2022-09-03T15:07:35;0.50;;;0.30;;
52072;SDS011;38074;51.232;6.826;2022-09-03T15:14:57;0.60;;;0.30;;
52072;SDS011;38074;51.232;6.826;2022-09-03T15:22:33;0.75;;;0.30;;
52072;SDS011;38074;51.232;6.826;2022-09-03T15:30:05;0.57;;;0.30;;
52072;SDS011;38074;51.232;6.826;2022-09-03T15:52:58;0.70;;;0.40;;
52072;SDS011;38074;51.232;6.826;2022-09-03T16:00:18;0.63;;;0.40;;
52072;SDS011;38074;51.232;6.826;2022-09-03T16:07:41;0.50;;;0.40;;
52072;SDS011;38074;51.232;6.826;2022-09-03T16:15:32;0.60;;;0.30;;
52072;SDS011;38074;51.232;6.826;2022-09-03T16:23:00;0.40;;;0.30;;
52072;SDS011;38074;51.232;6.826;2022-09-03T16:30:32;0.60;;;0.30;;
52072;SDS011;38074;51.232;6.826;2022-09-03T16:46:54;0.52;;;0.40;;
52072;SDS011;38074;51.232;6.826;2022-09-03T16:53:59;0.40;;;0.30;;
52072;SDS011;38074;51.232;6.826;2022-09-03T17:39:15;0.50;;;0.40;;
52072;SDS011;38074;51.232;6.826;2022-09-03T17:54:45;0.90;;;0.52;;
52072;SDS011;38074;51.232;6.826;2022-09-03T18:02:22;0.63;;;0.50;;
52072;SDS011;38074;51.232;6.826;2022-09-03T18:09:47;0.85;;;0.47;;
52072;SDS011;38074;51.232;6.826;2022-09-03T18:24:51;1.05;;;0.43;;
52072;SDS011;38074;51.232;6.826;2022-09-03T18:32:30;0.30;;;0.30;;
52072;SDS011;38074;51.232;6.826;2022-09-03T18:40:04;0.47;;;0.30;;
52072;SDS011;38074;51.232;6.826;2022-09-03T18:55:32;0.50;;;0.35;;
52072;SDS011;38074;51.232;6.826;2022-09-03T19:27:30;0.30;;;0.30;;
52072;SDS011;38074;51.232;6.826;2022-09-03T19:35:18;0.35;;;0.30;;
52072;SDS011;38074;51.232;6.826;2022-09-03T19:43:09;0.55;;;0.30;;
52072;SDS011;38074;51.232;6.826;2022-09-03T19:51:06;1.10;;;0.65;;
52072;SDS011;38074;51.232;6.826;2022-09-03T19:58:50;0.60;;;0.40;;
52072;SDS011;38074;51.232;6.826;2022-09-03T20:06:32;0.60;;;0.50;;
52072;SDS011;38074;51.232;6.826;2022-09-03T20:14:10;0.77;;;0.50;;
52072;SDS011;38074;51.232;6.826;2022-09-03T20:21:34;0.55;;;0.50;;
52072;SDS011;38074;51.232;6.826;2022-09-03T20:29:09;0.50;;;0.30;;
52072;SDS011;38074;51.232;6.826;2022-09-03T20:36:33;0.65;;;0.40;;
52072;SDS011;38074;51.232;6.826;2022-09-03T20:44:18;0.70;;;0.32;;
52072;SDS011;38074;51.232;6.826;2022-09-03T20:59:35;0.35;;;0.30;;
52072;SDS011;38074;51.232;6.826;2022-09-03T21:15:09;0.40;;;0.30;;
52072;SDS011;38074;51.232;6.826;2022-09-03T21:22:42;0.45;;;0.30;;
52072;SDS011;38074;51.232;6.826;2022-09-03T21:30:19;0.57;;;0.47;;
52072;SDS011;38074;51.232;6.826;2022-09-03T21:37:36;0.77;;;0.50;;
52072;SDS011;38074;51.232;6.826;2022-09-03T21:45:01;1.02;;;0.32;;
52072;SDS011;38074;51.232;6.826;2022-09-03T22:00:13;0.52;;;0.32;;
52072;SDS011;38074;51.232;6.826;2022-09-03T22:15:12;0.57;;;0.30;;
52072;SDS011;38074;51.232;6.826;2022-09-03T22:23:11;0.35;;;0.28;;
52072;SDS011;38074;51.232;6.826;2022-09-03T22:30:15;0.80;;;0.35;;
52072;SDS011;38074;51.232;6.826;2022-09-03T22:52:45;0.40;;;0.30;;
52072;SDS011;38074;51.232;6.826;2022-09-03T23:00:09;0.38;;;0.25;;
52072;SDS011;38074;51.232;6.826;2022-09-03T23:07:28;0.80;;;0.38;;
52072;SDS011;38074;51.232;6.826;2022-09-03T23:14:51;0.60;;;0.30;;
52072;SDS011;38074;51.232;6.826;2022-09-03T23:29:53;0.50;;;0.40;;
52072;SDS011;38074;51.232;6.826;2022-09-03T23:37:16;0.77;;;0.30;;
52072;SDS011;38074;51.232;6.826;2022-09-03T23:52:31;0.50;;;0.35;;
